sensor_id;sensor_type;location;lat;lon;timestamp;temperature;humidity
69359;HTU21D;56520;49.066;8.660;2023-07-16T00:01:58;18.65;96.40
69359;HTU21D;56520;49.066;8.660;2023-07-16T00:04:24;18.66;96.65
69359;HTU21D;56520;49.066;8.660;2023-07-16T00:06:49;18.67;96.97
69359;HTU21D;56520;49.066;8.660;2023-07-16T00:09:15;18.66;97.32
69359;HTU21D;56520;49.066;8.660;2023-07-16T00:11:41;18.65;97.33
69359;HTU21D;56520;49.066;8.660;2023-07-16T00:14:06;18.67;97.53
69359;HTU21D;56520;49.066;8.660;2023-07-16T00:16:31;18.69;97.62
69359;HTU21D;56520;49.066;8.660;2023-07-16T00:18:57;18.69;97.38
69359;HTU21D;56520;49.066;8.660;2023-07-16T00:21:23;18.66;97.34
69359;HTU21D;56520;49.066;8.660;2023-07-16T00:23:49;18.63;97.23
69359;HTU21D;56520;49.066;8.660;2023-07-16T00:26:14;18.62;96.97
69359;HTU21D;56520;49.066;8.660;2023-07-16T00:28:39;18.58;96.73
69359;HTU21D;56520;49.066;8.660;2023-07-16T00:31:05;18.55;96.68
69359;HTU21D;56520;49.066;8.660;2023-07-16T00:33:30;18.53;96.61
69359;HTU21D;56520;49.066;8.660;2023-07-16T00:35:56;18.48;96.31
69359;HTU21D;56520;49.066;8.660;2023-07-16T00:38:21;18.41;95.82
69359;HTU21D;56520;49.066;8.660;2023-07-16T00:40:47;18.41;95.32
69359;HTU21D;56520;49.066;8.660;2023-07-16T00:43:12;18.44;93.80
69359;HTU21D;56520;49.066;8.660;2023-07-16T00:45:40;18.47;92.19
69359;HTU21D;56520;49.066;8.660;2023-07-16T00:48:06;18.44;91.42
69359;HTU21D;56520;49.066;8.660;2023-07-16T00:50:33;18.34;91.92
69359;HTU21D;56520;49.066;8.660;2023-07-16T00:53:02;18.39;90.34
69359;HTU21D;56520;49.066;8.660;2023-07-16T00:55:31;18.28;91.05
69359;HTU21D;56520;49.066;8.660;2023-07-16T00:58:01;18.29;91.47
69359;HTU21D;56520;49.066;8.660;2023-07-16T01:00:30;18.29;90.49
69359;HTU21D;56520;49.066;8.660;2023-07-16T01:02:56;18.27;90.72
69359;HTU21D;56520;49.066;8.660;2023-07-16T01:05:22;18.20;90.87
69359;HTU21D;56520;49.066;8.660;2023-07-16T01:07:55;18.14;90.17
69359;HTU21D;56520;49.066;8.660;2023-07-16T01:10:23;18.06;89.00
69359;HTU21D;56520;49.066;8.660;2023-07-16T01:12:51;18.07;88.03
69359;HTU21D;56520;49.066;8.660;2023-07-16T01:15:17;18.13;87.45
69359;HTU21D;56520;49.066;8.660;2023-07-16T01:17:42;18.07;88.38
69359;HTU21D;56520;49.066;8.660;2023-07-16T01:20:08;18.08;89.37
69359;HTU21D;56520;49.066;8.660;2023-07-16T01:28:27;17.98;91.18
69359;HTU21D;56520;49.066;8.660;2023-07-16T01:30:59;17.91;91.14
69359;HTU21D;56520;49.066;8.660;2023-07-16T01:33:25;17.87;91.72
69359;HTU21D;56520;49.066;8.660;2023-07-16T01:35:51;17.88;91.21
69359;HTU21D;56520;49.066;8.660;2023-07-16T01:38:17;17.85;91.05
69359;HTU21D;56520;49.066;8.660;2023-07-16T01:40:44;17.81;91.27
69359;HTU21D;56520;49.066;8.660;2023-07-16T01:43:09;17.85;91.18
69359;HTU21D;56520;49.066;8.660;2023-07-16T01:45:34;17.81;91.08
69359;HTU21D;56520;49.066;8.660;2023-07-16T01:48:35;17.75;91.21
69359;HTU21D;56520;49.066;8.660;2023-07-16T01:51:01;17.72;91.04
69359;HTU21D;56520;49.066;8.660;2023-07-16T01:53:27;17.68;90.88
69359;HTU21D;56520;49.066;8.660;2023-07-16T01:55:52;17.65;91.00
69359;HTU21D;56520;49.066;8.660;2023-07-16T01:58:17;17.62;91.00
69359;HTU21D;56520;49.066;8.660;2023-07-16T02:00:43;17.59;90.89
69359;HTU21D;56520;49.066;8.660;2023-07-16T02:03:09;17.56;90.57
69359;HTU21D;56520;49.066;8.660;2023-07-16T02:05:34;17.54;90.56
69359;HTU21D;56520;49.066;8.660;2023-07-16T02:08:00;17.58;89.10
69359;HTU21D;56520;49.066;8.660;2023-07-16T02:10:25;17.58;89.22
69359;HTU21D;56520;49.066;8.660;2023-07-16T02:12:51;17.56;89.08
69359;HTU21D;56520;49.066;8.660;2023-07-16T02:15:16;17.55;88.96
69359;HTU21D;56520;49.066;8.660;2023-07-16T02:17:43;17.53;89.25
69359;HTU21D;56520;49.066;8.660;2023-07-16T02:20:09;17.51;89.16
69359;HTU21D;56520;49.066;8.660;2023-07-16T02:22:36;17.50;89.25
69359;HTU21D;56520;49.066;8.660;2023-07-16T02:25:01;17.49;89.44
69359;HTU21D;56520;49.066;8.660;2023-07-16T02:27:27;17.47;89.67
69359;HTU21D;56520;49.066;8.660;2023-07-16T02:29:52;17.47;90.21
69359;HTU21D;56520;49.066;8.660;2023-07-16T02:32:18;17.52;89.60
69359;HTU21D;56520;49.066;8.660;2023-07-16T02:34:43;17.48;90.00
69359;HTU21D;56520;49.066;8.660;2023-07-16T02:37:09;17.46;90.16
69359;HTU21D;56520;49.066;8.660;2023-07-16T02:39:34;17.44;90.84
69359;HTU21D;56520;49.066;8.660;2023-07-16T02:41:59;17.41;91.36
69359;HTU21D;56520;49.066;8.660;2023-07-16T02:44:25;17.37;91.39
69359;HTU21D;56520;49.066;8.660;2023-07-16T02:46:50;17.35;91.37
69359;HTU21D;56520;49.066;8.660;2023-07-16T02:49:16;17.38;91.63
69359;HTU21D;56520;49.066;8.660;2023-07-16T02:51:41;17.35;91.53
69359;HTU21D;56520;49.066;8.660;2023-07-16T02:54:07;17.34;91.67
69359;HTU21D;56520;49.066;8.660;2023-07-16T02:56:32;17.37;91.67
69359;HTU21D;56520;49.066;8.660;2023-07-16T02:58:58;17.36;91.59
69359;HTU21D;56520;49.066;8.660;2023-07-16T03:01:23;17.38;91.63
69359;HTU21D;56520;49.066;8.660;2023-07-16T03:03:49;17.39;91.51
69359;HTU21D;56520;49.066;8.660;2023-07-16T03:06:14;17.38;91.40
69359;HTU21D;56520;49.066;8.660;2023-07-16T03:08:40;17.38;91.31
69359;HTU21D;56520;49.066;8.660;2023-07-16T03:11:05;17.40;91.18
69359;HTU21D;56520;49.066;8.660;2023-07-16T03:13:31;17.41;91.08
69359;HTU21D;56520;49.066;8.660;2023-07-16T03:15:56;17.40;91.04
69359;HTU21D;56520;49.066;8.660;2023-07-16T03:18:22;17.40;90.98
69359;HTU21D;56520;49.066;8.660;2023-07-16T03:20:47;17.37;90.94
69359;HTU21D;56520;49.066;8.660;2023-07-16T03:23:13;17.36;90.73
69359;HTU21D;56520;49.066;8.660;2023-07-16T03:25:38;17.37;90.45
69359;HTU21D;56520;49.066;8.660;2023-07-16T03:28:04;17.39;90.12
69359;HTU21D;56520;49.066;8.660;2023-07-16T03:30:32;17.43;89.78
69359;HTU21D;56520;49.066;8.660;2023-07-16T03:32:58;17.40;89.98
69359;HTU21D;56520;49.066;8.660;2023-07-16T03:35:23;17.40;90.00
69359;HTU21D;56520;49.066;8.660;2023-07-16T03:37:49;17.37;90.08
69359;HTU21D;56520;49.066;8.660;2023-07-16T03:40:15;17.34;90.19
69359;HTU21D;56520;49.066;8.660;2023-07-16T03:42:41;17.36;90.05
69359;HTU21D;56520;49.066;8.660;2023-07-16T03:45:08;17.36;89.92
69359;HTU21D;56520;49.066;8.660;2023-07-16T03:47:33;17.36;90.05
69359;HTU21D;56520;49.066;8.660;2023-07-16T03:49:58;17.34;90.14
69359;HTU21D;56520;49.066;8.660;2023-07-16T03:52:24;17.32;90.28
69359;HTU21D;56520;49.066;8.660;2023-07-16T03:54:50;17.30;90.54
69359;HTU21D;56520;49.066;8.660;2023-07-16T03:57:16;17.26;90.79
69359;HTU21D;56520;49.066;8.660;2023-07-16T03:59:42;17.29;90.95
69359;HTU21D;56520;49.066;8.660;2023-07-16T04:02:08;17.28;90.95
69359;HTU21D;56520;49.066;8.660;2023-07-16T04:04:33;17.32;90.96
69359;HTU21D;56520;49.066;8.660;2023-07-16T04:06:59;17.40;90.64
69359;HTU21D;56520;49.066;8.660;2023-07-16T04:09:24;17.41;90.44
69359;HTU21D;56520;49.066;8.660;2023-07-16T04:11:50;17.40;90.52
69359;HTU21D;56520;49.066;8.660;2023-07-16T04:14:16;17.45;89.96
69359;HTU21D;56520;49.066;8.660;2023-07-16T04:16:41;17.47;89.95
69359;HTU21D;56520;49.066;8.660;2023-07-16T04:19:08;17.46;90.12
69359;HTU21D;56520;49.066;8.660;2023-07-16T04:21:33;17.43;90.19
69359;HTU21D;56520;49.066;8.660;2023-07-16T04:23:58;17.44;90.03
69359;HTU21D;56520;49.066;8.660;2023-07-16T04:26:24;17.46;89.60
69359;HTU21D;56520;49.066;8.660;2023-07-16T04:28:49;17.48;89.55
69359;HTU21D;56520;49.066;8.660;2023-07-16T04:31:14;17.47;89.62
69359;HTU21D;56520;49.066;8.660;2023-07-16T04:33:40;17.50;89.52
69359;HTU21D;56520;49.066;8.660;2023-07-16T04:36:05;17.52;89.60
69359;HTU21D;56520;49.066;8.660;2023-07-16T04:38:31;17.55;89.12
69359;HTU21D;56520;49.066;8.660;2023-07-16T04:40:56;17.56;88.99
69359;HTU21D;56520;49.066;8.660;2023-07-16T04:43:21;17.59;88.88
69359;HTU21D;56520;49.066;8.660;2023-07-16T04:45:47;17.59;88.96
69359;HTU21D;56520;49.066;8.660;2023-07-16T04:48:12;17.61;88.73
69359;HTU21D;56520;49.066;8.660;2023-07-16T04:50:38;17.62;88.46
69359;HTU21D;56520;49.066;8.660;2023-07-16T04:53:04;17.61;88.25
69359;HTU21D;56520;49.066;8.660;2023-07-16T04:55:35;17.60;88.44
69359;HTU21D;56520;49.066;8.660;2023-07-16T04:58:00;17.58;88.76
69359;HTU21D;56520;49.066;8.660;2023-07-16T05:00:26;17.55;88.86
69359;HTU21D;56520;49.066;8.660;2023-07-16T05:02:51;17.60;88.60
69359;HTU21D;56520;49.066;8.660;2023-07-16T05:05:17;17.66;88.13
69359;HTU21D;56520;49.066;8.660;2023-07-16T05:07:42;17.64;88.38
69359;HTU21D;56520;49.066;8.660;2023-07-16T05:10:08;17.63;88.36
69359;HTU21D;56520;49.066;8.660;2023-07-16T05:12:33;17.69;87.26
69359;HTU21D;56520;49.066;8.660;2023-07-16T05:14:59;17.73;87.44
69359;HTU21D;56520;49.066;8.660;2023-07-16T05:17:24;17.73;87.83
69359;HTU21D;56520;49.066;8.660;2023-07-16T05:19:49;17.76;87.70
69359;HTU21D;56520;49.066;8.660;2023-07-16T05:22:15;17.78;87.47
69359;HTU21D;56520;49.066;8.660;2023-07-16T05:24:40;17.84;86.95
69359;HTU21D;56520;49.066;8.660;2023-07-16T05:27:06;17.84;87.01
69359;HTU21D;56520;49.066;8.660;2023-07-16T05:29:31;17.93;85.54
69359;HTU21D;56520;49.066;8.660;2023-07-16T05:31:56;18.02;85.42
69359;HTU21D;56520;49.066;8.660;2023-07-16T05:34:22;18.06;86.26
69359;HTU21D;56520;49.066;8.660;2023-07-16T05:36:47;18.18;84.61
69359;HTU21D;56520;49.066;8.660;2023-07-16T05:39:13;18.25;84.74
69359;HTU21D;56520;49.066;8.660;2023-07-16T05:41:39;18.35;84.07
69359;HTU21D;56520;49.066;8.660;2023-07-16T05:44:05;18.46;83.44
69359;HTU21D;56520;49.066;8.660;2023-07-16T05:46:30;18.51;83.51
69359;HTU21D;56520;49.066;8.660;2023-07-16T05:48:55;18.65;81.39
69359;HTU21D;56520;49.066;8.660;2023-07-16T05:51:21;18.67;81.36
69359;HTU21D;56520;49.066;8.660;2023-07-16T05:53:47;18.71;79.83
69359;HTU21D;56520;49.066;8.660;2023-07-16T05:56:12;18.74;79.67
69359;HTU21D;56520;49.066;8.660;2023-07-16T05:58:39;18.56;80.81
69359;HTU21D;56520;49.066;8.660;2023-07-16T06:01:05;18.56;79.46
69359;HTU21D;56520;49.066;8.660;2023-07-16T06:03:30;18.52;80.07
69359;HTU21D;56520;49.066;8.660;2023-07-16T06:05:56;18.41;81.09
69359;HTU21D;56520;49.066;8.660;2023-07-16T06:08:21;18.30;81.72
69359;HTU21D;56520;49.066;8.660;2023-07-16T06:10:46;18.24;81.95
69359;HTU21D;56520;49.066;8.660;2023-07-16T06:13:12;18.20;81.91
69359;HTU21D;56520;49.066;8.660;2023-07-16T06:15:37;18.21;81.67
69359;HTU21D;56520;49.066;8.660;2023-07-16T06:18:03;18.20;81.84
69359;HTU21D;56520;49.066;8.660;2023-07-16T06:20:28;18.18;82.29
69359;HTU21D;56520;49.066;8.660;2023-07-16T06:22:54;18.22;81.72
69359;HTU21D;56520;49.066;8.660;2023-07-16T06:25:19;18.28;80.81
69359;HTU21D;56520;49.066;8.660;2023-07-16T06:27:45;18.34;80.80
69359;HTU21D;56520;49.066;8.660;2023-07-16T06:30:10;18.32;81.14
69359;HTU21D;56520;49.066;8.660;2023-07-16T06:32:36;18.33;81.59
69359;HTU21D;56520;49.066;8.660;2023-07-16T06:35:01;18.36;81.81
69359;HTU21D;56520;49.066;8.660;2023-07-16T06:37:26;18.37;81.20
69359;HTU21D;56520;49.066;8.660;2023-07-16T06:39:52;18.44;80.55
69359;HTU21D;56520;49.066;8.660;2023-07-16T06:42:17;18.53;79.81
69359;HTU21D;56520;49.066;8.660;2023-07-16T06:44:43;18.58;79.46
69359;HTU21D;56520;49.066;8.660;2023-07-16T06:47:08;18.62;79.06
69359;HTU21D;56520;49.066;8.660;2023-07-16T06:49:33;18.64;79.18
69359;HTU21D;56520;49.066;8.660;2023-07-16T06:52:04;18.69;79.12
69359;HTU21D;56520;49.066;8.660;2023-07-16T06:54:29;18.78;78.31
69359;HTU21D;56520;49.066;8.660;2023-07-16T06:56:55;18.85;77.83
69359;HTU21D;56520;49.066;8.660;2023-07-16T06:59:20;18.86;75.87
69359;HTU21D;56520;49.066;8.660;2023-07-16T07:01:45;18.89;76.55
69359;HTU21D;56520;49.066;8.660;2023-07-16T07:04:11;18.92;77.29
69359;HTU21D;56520;49.066;8.660;2023-07-16T07:06:36;19.03;75.79
69359;HTU21D;56520;49.066;8.660;2023-07-16T07:09:01;19.08;75.02
69359;HTU21D;56520;49.066;8.660;2023-07-16T07:11:27;19.25;73.82
69359;HTU21D;56520;49.066;8.660;2023-07-16T07:13:53;19.18;74.72
69359;HTU21D;56520;49.066;8.660;2023-07-16T07:16:19;19.16;74.63
69359;HTU21D;56520;49.066;8.660;2023-07-16T07:18:45;19.17;73.57
69359;HTU21D;56520;49.066;8.660;2023-07-16T07:21:10;19.27;71.79
69359;HTU21D;56520;49.066;8.660;2023-07-16T07:23:36;19.31;72.99
69359;HTU21D;56520;49.066;8.660;2023-07-16T07:26:01;19.40;71.14
69359;HTU21D;56520;49.066;8.660;2023-07-16T07:28:26;19.44;71.68
69359;HTU21D;56520;49.066;8.660;2023-07-16T07:30:52;19.46;70.81
69359;HTU21D;56520;49.066;8.660;2023-07-16T07:33:17;19.55;70.36
69359;HTU21D;56520;49.066;8.660;2023-07-16T07:35:43;19.46;71.30
69359;HTU21D;56520;49.066;8.660;2023-07-16T07:38:08;19.42;71.76
69359;HTU21D;56520;49.066;8.660;2023-07-16T07:40:33;19.47;71.97
69359;HTU21D;56520;49.066;8.660;2023-07-16T07:42:59;19.50;72.48
69359;HTU21D;56520;49.066;8.660;2023-07-16T07:45:25;19.54;72.70
69359;HTU21D;56520;49.066;8.660;2023-07-16T07:47:51;19.55;72.80
69359;HTU21D;56520;49.066;8.660;2023-07-16T07:50:16;19.61;72.38
69359;HTU21D;56520;49.066;8.660;2023-07-16T07:52:42;19.70;71.55
69359;HTU21D;56520;49.066;8.660;2023-07-16T07:55:07;19.72;71.27
69359;HTU21D;56520;49.066;8.660;2023-07-16T07:57:33;19.77;71.19
69359;HTU21D;56520;49.066;8.660;2023-07-16T07:59:58;19.83;71.38
69359;HTU21D;56520;49.066;8.660;2023-07-16T08:02:24;19.87;71.63
69359;HTU21D;56520;49.066;8.660;2023-07-16T08:04:51;19.89;71.58
69359;HTU21D;56520;49.066;8.660;2023-07-16T08:07:17;19.87;70.39
69359;HTU21D;56520;49.066;8.660;2023-07-16T08:09:42;19.79;70.87
69359;HTU21D;56520;49.066;8.660;2023-07-16T08:12:08;19.75;71.34
69359;HTU21D;56520;49.066;8.660;2023-07-16T08:14:33;19.75;70.68
69359;HTU21D;56520;49.066;8.660;2023-07-16T08:16:59;19.79;69.99
69359;HTU21D;56520;49.066;8.660;2023-07-16T08:19:24;19.76;69.45
69359;HTU21D;56520;49.066;8.660;2023-07-16T08:21:50;19.82;68.27
69359;HTU21D;56520;49.066;8.660;2023-07-16T08:24:15;19.97;67.36
69359;HTU21D;56520;49.066;8.660;2023-07-16T08:26:40;20.12;66.61
69359;HTU21D;56520;49.066;8.660;2023-07-16T08:29:06;20.12;66.30
69359;HTU21D;56520;49.066;8.660;2023-07-16T08:31:31;20.05;66.80
69359;HTU21D;56520;49.066;8.660;2023-07-16T08:33:57;20.14;65.73
69359;HTU21D;56520;49.066;8.660;2023-07-16T08:36:22;20.05;67.06
69359;HTU21D;56520;49.066;8.660;2023-07-16T08:38:47;20.13;67.36
69359;HTU21D;56520;49.066;8.660;2023-07-16T08:41:14;20.24;67.49
69359;HTU21D;56520;49.066;8.660;2023-07-16T08:43:40;20.50;66.44
69359;HTU21D;56520;49.066;8.660;2023-07-16T08:46:06;20.86;65.84
69359;HTU21D;56520;49.066;8.660;2023-07-16T08:48:31;21.13;65.36
69359;HTU21D;56520;49.066;8.660;2023-07-16T08:51:02;21.46;62.63
69359;HTU21D;56520;49.066;8.660;2023-07-16T08:53:27;21.35;63.08
69359;HTU21D;56520;49.066;8.660;2023-07-16T08:55:53;21.36;64.53
69359;HTU21D;56520;49.066;8.660;2023-07-16T08:58:19;21.49;64.47
69359;HTU21D;56520;49.066;8.660;2023-07-16T09:00:45;21.51;63.39
69359;HTU21D;56520;49.066;8.660;2023-07-16T09:03:12;21.54;60.14
69359;HTU21D;56520;49.066;8.660;2023-07-16T09:05:39;21.64;59.86
69359;HTU21D;56520;49.066;8.660;2023-07-16T09:08:04;21.64;62.64
69359;HTU21D;56520;49.066;8.660;2023-07-16T09:10:30;21.70;62.05
69359;HTU21D;56520;49.066;8.660;2023-07-16T09:12:57;21.65;64.03
69359;HTU21D;56520;49.066;8.660;2023-07-16T09:15:23;21.57;64.98
69359;HTU21D;56520;49.066;8.660;2023-07-16T09:17:49;21.62;65.29
69359;HTU21D;56520;49.066;8.660;2023-07-16T09:20:15;21.72;65.02
69359;HTU21D;56520;49.066;8.660;2023-07-16T09:22:42;21.90;63.08
69359;HTU21D;56520;49.066;8.660;2023-07-16T09:25:07;21.97;63.31
69359;HTU21D;56520;49.066;8.660;2023-07-16T09:27:33;21.83;63.71
69359;HTU21D;56520;49.066;8.660;2023-07-16T09:29:59;21.70;63.79
69359;HTU21D;56520;49.066;8.660;2023-07-16T09:32:38;21.65;63.20
69359;HTU21D;56520;49.066;8.660;2023-07-16T09:35:12;21.99;62.92
69359;HTU21D;56520;49.066;8.660;2023-07-16T09:37:39;22.25;62.50
69359;HTU21D;56520;49.066;8.660;2023-07-16T09:40:06;22.56;60.04
69359;HTU21D;56520;49.066;8.660;2023-07-16T09:42:37;22.83;58.24
69359;HTU21D;56520;49.066;8.660;2023-07-16T09:45:03;23.06;58.06
69359;HTU21D;56520;49.066;8.660;2023-07-16T09:47:30;23.23;58.83
69359;HTU21D;56520;49.066;8.660;2023-07-16T09:49:55;23.49;58.41
69359;HTU21D;56520;49.066;8.660;2023-07-16T09:52:21;23.67;56.21
69359;HTU21D;56520;49.066;8.660;2023-07-16T09:54:48;23.77;56.68
69359;HTU21D;56520;49.066;8.660;2023-07-16T09:57:17;23.80;56.95
69359;HTU21D;56520;49.066;8.660;2023-07-16T09:59:43;23.84;56.36
69359;HTU21D;56520;49.066;8.660;2023-07-16T10:02:09;24.08;54.96
69359;HTU21D;56520;49.066;8.660;2023-07-16T10:04:39;24.20;55.44
69359;HTU21D;56520;49.066;8.660;2023-07-16T10:07:19;24.28;55.74
69359;HTU21D;56520;49.066;8.660;2023-07-16T10:09:53;24.57;54.67
69359;HTU21D;56520;49.066;8.660;2023-07-16T10:12:20;24.73;52.50
69359;HTU21D;56520;49.066;8.660;2023-07-16T10:17:17;24.65;51.88
69359;HTU21D;56520;49.066;8.660;2023-07-16T10:22:38;24.65;51.17
69359;HTU21D;56520;49.066;8.660;2023-07-16T10:25:10;24.61;52.54
69359;HTU21D;56520;49.066;8.660;2023-07-16T10:27:36;24.89;50.80
69359;HTU21D;56520;49.066;8.660;2023-07-16T10:30:04;24.68;49.93
69359;HTU21D;56520;49.066;8.660;2023-07-16T10:32:32;24.62;51.92
69359;HTU21D;56520;49.066;8.660;2023-07-16T10:34:57;24.69;51.99
69359;HTU21D;56520;49.066;8.660;2023-07-16T10:37:24;24.50;50.95
69359;HTU21D;56520;49.066;8.660;2023-07-16T10:39:55;24.53;51.19
69359;HTU21D;56520;49.066;8.660;2023-07-16T10:42:23;24.66;50.08
69359;HTU21D;56520;49.066;8.660;2023-07-16T10:44:52;24.47;50.72
69359;HTU21D;56520;49.066;8.660;2023-07-16T10:47:28;24.76;50.19
69359;HTU21D;56520;49.066;8.660;2023-07-16T10:49:54;25.19;50.76
69359;HTU21D;56520;49.066;8.660;2023-07-16T10:52:23;25.67;48.41
69359;HTU21D;56520;49.066;8.660;2023-07-16T10:54:50;25.92;47.16
69359;HTU21D;56520;49.066;8.660;2023-07-16T10:57:16;26.12;45.21
69359;HTU21D;56520;49.066;8.660;2023-07-16T10:59:42;26.19;45.71
69359;HTU21D;56520;49.066;8.660;2023-07-16T11:02:12;26.23;45.04
69359;HTU21D;56520;49.066;8.660;2023-07-16T11:04:38;26.31;47.28
69359;HTU21D;56520;49.066;8.660;2023-07-16T11:07:08;26.33;45.61
69359;HTU21D;56520;49.066;8.660;2023-07-16T11:09:34;26.28;46.57
69359;HTU21D;56520;49.066;8.660;2023-07-16T11:12:07;26.49;44.96
69359;HTU21D;56520;49.066;8.660;2023-07-16T11:14:33;26.64;43.03
69359;HTU21D;56520;49.066;8.660;2023-07-16T11:17:07;26.62;45.13
69359;HTU21D;56520;49.066;8.660;2023-07-16T11:19:33;26.82;44.61
69359;HTU21D;56520;49.066;8.660;2023-07-16T11:22:01;26.91;44.38
69359;HTU21D;56520;49.066;8.660;2023-07-16T11:24:27;26.97;43.87
69359;HTU21D;56520;49.066;8.660;2023-07-16T11:26:53;27.08;44.87
69359;HTU21D;56520;49.066;8.660;2023-07-16T11:29:20;27.25;42.39
69359;HTU21D;56520;49.066;8.660;2023-07-16T11:31:52;27.12;42.87
69359;HTU21D;56520;49.066;8.660;2023-07-16T11:34:21;26.93;42.97
69359;HTU21D;56520;49.066;8.660;2023-07-16T11:36:49;26.81;44.19
69359;HTU21D;56520;49.066;8.660;2023-07-16T11:39:14;26.56;43.64
69359;HTU21D;56520;49.066;8.660;2023-07-16T11:41:40;26.54;43.63
69359;HTU21D;56520;49.066;8.660;2023-07-16T11:44:07;26.31;44.00
69359;HTU21D;56520;49.066;8.660;2023-07-16T11:46:33;26.10;44.03
69359;HTU21D;56520;49.066;8.660;2023-07-16T11:49:02;26.20;43.91
69359;HTU21D;56520;49.066;8.660;2023-07-16T11:51:29;26.04;43.87
69359;HTU21D;56520;49.066;8.660;2023-07-16T11:53:56;26.02;44.74
69359;HTU21D;56520;49.066;8.660;2023-07-16T11:56:21;26.25;44.56
69359;HTU21D;56520;49.066;8.660;2023-07-16T11:58:48;26.40;43.90
69359;HTU21D;56520;49.066;8.660;2023-07-16T12:01:14;26.58;42.92
69359;HTU21D;56520;49.066;8.660;2023-07-16T12:03:43;26.67;42.48
69359;HTU21D;56520;49.066;8.660;2023-07-16T12:06:09;26.82;42.52
69359;HTU21D;56520;49.066;8.660;2023-07-16T12:08:34;26.91;41.51
69359;HTU21D;56520;49.066;8.660;2023-07-16T12:11:00;26.91;41.39
69359;HTU21D;56520;49.066;8.660;2023-07-16T12:13:25;26.75;42.46
69359;HTU21D;56520;49.066;8.660;2023-07-16T12:15:50;26.77;42.06
69359;HTU21D;56520;49.066;8.660;2023-07-16T12:18:16;26.69;42.83
69359;HTU21D;56520;49.066;8.660;2023-07-16T12:20:41;26.73;42.92
69359;HTU21D;56520;49.066;8.660;2023-07-16T12:23:07;26.82;43.11
69359;HTU21D;56520;49.066;8.660;2023-07-16T12:25:33;27.00;42.03
69359;HTU21D;56520;49.066;8.660;2023-07-16T12:28:00;27.06;40.63
69359;HTU21D;56520;49.066;8.660;2023-07-16T12:30:27;26.99;41.19
69359;HTU21D;56520;49.066;8.660;2023-07-16T12:32:52;26.92;40.68
69359;HTU21D;56520;49.066;8.660;2023-07-16T12:35:17;26.96;40.37
69359;HTU21D;56520;49.066;8.660;2023-07-16T12:37:43;26.87;40.75
69359;HTU21D;56520;49.066;8.660;2023-07-16T12:40:08;26.81;40.71
69359;HTU21D;56520;49.066;8.660;2023-07-16T12:42:34;26.86;41.58
69359;HTU21D;56520;49.066;8.660;2023-07-16T12:45:01;27.02;41.18
69359;HTU21D;56520;49.066;8.660;2023-07-16T12:47:26;27.08;40.27
69359;HTU21D;56520;49.066;8.660;2023-07-16T12:49:52;27.11;41.05
69359;HTU21D;56520;49.066;8.660;2023-07-16T12:52:17;27.41;37.75
69359;HTU21D;56520;49.066;8.660;2023-07-16T12:54:42;27.34;38.69
69359;HTU21D;56520;49.066;8.660;2023-07-16T12:57:08;27.21;39.60
69359;HTU21D;56520;49.066;8.660;2023-07-16T12:59:33;27.21;37.62
69359;HTU21D;56520;49.066;8.660;2023-07-16T13:01:59;27.01;37.59
69359;HTU21D;56520;49.066;8.660;2023-07-16T13:04:24;27.00;39.93
69359;HTU21D;56520;49.066;8.660;2023-07-16T13:06:49;27.11;41.07
69359;HTU21D;56520;49.066;8.660;2023-07-16T13:09:15;27.12;40.75
69359;HTU21D;56520;49.066;8.660;2023-07-16T13:11:42;27.23;40.10
69359;HTU21D;56520;49.066;8.660;2023-07-16T13:14:08;27.35;38.88
69359;HTU21D;56520;49.066;8.660;2023-07-16T13:16:33;27.25;40.17
69359;HTU21D;56520;49.066;8.660;2023-07-16T13:18:59;27.29;38.59
69359;HTU21D;56520;49.066;8.660;2023-07-16T13:21:24;27.38;38.73
69359;HTU21D;56520;49.066;8.660;2023-07-16T13:23:49;27.42;39.48
69359;HTU21D;56520;49.066;8.660;2023-07-16T13:26:15;27.34;39.75
69359;HTU21D;56520;49.066;8.660;2023-07-16T13:28:40;27.27;39.85
69359;HTU21D;56520;49.066;8.660;2023-07-16T13:31:06;27.30;38.36
69359;HTU21D;56520;49.066;8.660;2023-07-16T13:33:31;27.20;39.87
69359;HTU21D;56520;49.066;8.660;2023-07-16T13:35:57;27.15;39.45
69359;HTU21D;56520;49.066;8.660;2023-07-16T13:38:25;26.96;41.16
69359;HTU21D;56520;49.066;8.660;2023-07-16T13:40:50;26.87;41.19
69359;HTU21D;56520;49.066;8.660;2023-07-16T13:43:16;26.90;40.91
69359;HTU21D;56520;49.066;8.660;2023-07-16T13:45:41;26.84;40.91
69359;HTU21D;56520;49.066;8.660;2023-07-16T13:48:06;26.97;41.48
69359;HTU21D;56520;49.066;8.660;2023-07-16T13:50:33;27.11;41.20
69359;HTU21D;56520;49.066;8.660;2023-07-16T13:52:58;27.25;39.08
69359;HTU21D;56520;49.066;8.660;2023-07-16T13:55:27;27.29;39.24
69359;HTU21D;56520;49.066;8.660;2023-07-16T13:57:52;27.30;39.82
69359;HTU21D;56520;49.066;8.660;2023-07-16T14:00:18;27.26;40.26
69359;HTU21D;56520;49.066;8.660;2023-07-16T14:02:44;27.24;40.59
69359;HTU21D;56520;49.066;8.660;2023-07-16T14:05:09;27.21;40.60
69359;HTU21D;56520;49.066;8.660;2023-07-16T14:07:35;27.25;40.81
69359;HTU21D;56520;49.066;8.660;2023-07-16T14:10:00;27.35;40.10
69359;HTU21D;56520;49.066;8.660;2023-07-16T14:12:25;27.23;39.85
69359;HTU21D;56520;49.066;8.660;2023-07-16T14:14:51;27.14;40.82
69359;HTU21D;56520;49.066;8.660;2023-07-16T14:17:16;27.26;41.33
69359;HTU21D;56520;49.066;8.660;2023-07-16T14:19:41;27.31;40.44
69359;HTU21D;56520;49.066;8.660;2023-07-16T14:22:07;27.34;40.12
69359;HTU21D;56520;49.066;8.660;2023-07-16T14:24:36;27.40;40.26
69359;HTU21D;56520;49.066;8.660;2023-07-16T14:27:02;27.50;40.06
69359;HTU21D;56520;49.066;8.660;2023-07-16T14:29:27;27.40;40.26
69359;HTU21D;56520;49.066;8.660;2023-07-16T14:31:54;27.27;40.77
69359;HTU21D;56520;49.066;8.660;2023-07-16T14:34:20;27.15;41.04
69359;HTU21D;56520;49.066;8.660;2023-07-16T14:36:45;27.11;40.82
69359;HTU21D;56520;49.066;8.660;2023-07-16T14:39:11;27.08;40.98
69359;HTU21D;56520;49.066;8.660;2023-07-16T14:41:36;27.10;41.36
69359;HTU21D;56520;49.066;8.660;2023-07-16T14:44:04;27.25;40.52
69359;HTU21D;56520;49.066;8.660;2023-07-16T14:46:29;27.31;41.46
69359;HTU21D;56520;49.066;8.660;2023-07-16T14:48:54;27.44;41.24
69359;HTU21D;56520;49.066;8.660;2023-07-16T14:51:22;27.43;40.35
69359;HTU21D;56520;49.066;8.660;2023-07-16T14:53:47;27.41;39.56
69359;HTU21D;56520;49.066;8.660;2023-07-16T14:56:12;27.44;40.06
69359;HTU21D;56520;49.066;8.660;2023-07-16T14:58:38;27.29;41.06
69359;HTU21D;56520;49.066;8.660;2023-07-16T15:01:03;27.35;40.26
69359;HTU21D;56520;49.066;8.660;2023-07-16T15:03:33;27.53;38.71
69359;HTU21D;56520;49.066;8.660;2023-07-16T15:05:59;27.45;40.43
69359;HTU21D;56520;49.066;8.660;2023-07-16T15:08:25;27.39;40.25
69359;HTU21D;56520;49.066;8.660;2023-07-16T15:10:55;27.31;41.11
69359;HTU21D;56520;49.066;8.660;2023-07-16T15:13:22;27.54;39.49
69359;HTU21D;56520;49.066;8.660;2023-07-16T15:15:51;27.67;39.46
69359;HTU21D;56520;49.066;8.660;2023-07-16T15:18:16;27.70;39.05
69359;HTU21D;56520;49.066;8.660;2023-07-16T15:20:41;27.63;39.76